<?xml version="1.0" encoding="UTF-8" standalone="no" ?>
<gpx xmlns="http://www.topografix.com/GPX/1/1" xmlns:xsi="http://www.w3.org/2001/XMLSchema-instance" xsi:schemaLocation="http://www.topografix.com/GPX/1/1 http://www.topografix.com/GPX/1/1/gpx.xsd" version="1.1" creator="VisuGPX - https://www.visugpx.com">
  <metadata>
    <name>25-D-Besançon            </name>
    <desc><![CDATA[25-D-Besançon : la ville                    ]]></desc>
  </metadata>
  <trk>
    <name><![CDATA[2019-06-06-Besancon-la ville]]></name>
    <trkseg>
      <trkpt lat="47.2334" lon="6.03276">
        <ele>298.2</ele>
        <time>2019-06-06T12:02:45Z</time>
      </trkpt>
      <trkpt lat="47.23346" lon="6.03287">
        <ele>298.2</ele>
        <time>2019-06-06T12:03:05Z</time>
      </trkpt>
      <trkpt lat="47.23354" lon="6.03294">
        <ele>296.2</ele>
        <time>2019-06-06T12:03:20Z</time>
      </trkpt>
      <trkpt lat="47.23363" lon="6.03294">
        <ele>291.4</ele>
        <time>2019-06-06T12:03:39Z</time>
      </trkpt>
      <trkpt lat="47.23372" lon="6.03294">
        <ele>289</ele>
        <time>2019-06-06T12:03:54Z</time>
      </trkpt>
      <trkpt lat="47.23381" lon="6.03298">
        <ele>284.1</ele>
        <time>2019-06-06T12:04:15Z</time>
      </trkpt>
      <trkpt lat="47.2339" lon="6.03298">
        <ele>280.1</ele>
        <time>2019-06-06T12:04:31Z</time>
      </trkpt>
      <trkpt lat="47.23399" lon="6.03293">
        <ele>275.7</ele>
        <time>2019-06-06T12:04:44Z</time>
      </trkpt>
      <trkpt lat="47.23406" lon="6.03302">
        <ele>272</ele>
        <time>2019-06-06T12:04:57Z</time>
      </trkpt>
      <trkpt lat="47.23405" lon="6.03316">
        <ele>268.2</ele>
        <time>2019-06-06T12:05:11Z</time>
      </trkpt>
      <trkpt lat="47.23396" lon="6.03312">
        <ele>264.5</ele>
        <time>2019-06-06T12:06:52Z</time>
      </trkpt>
      <trkpt lat="47.23414" lon="6.03313">
        <ele>261.6</ele>
        <time>2019-06-06T12:07:15Z</time>
      </trkpt>
      <trkpt lat="47.23415" lon="6.03327">
        <ele>260.9</ele>
        <time>2019-06-06T12:07:19Z</time>
      </trkpt>
      <trkpt lat="47.23404" lon="6.03337">
        <ele>259</ele>
        <time>2019-06-06T12:07:28Z</time>
      </trkpt>
      <trkpt lat="47.23402" lon="6.03351">
        <ele>259.2</ele>
        <time>2019-06-06T12:07:37Z</time>
      </trkpt>
      <trkpt lat="47.2341" lon="6.03344">
        <ele>259.4</ele>
        <time>2019-06-06T12:09:53Z</time>
      </trkpt>
      <trkpt lat="47.23421" lon="6.03344">
        <ele>258.7</ele>
        <time>2019-06-06T12:10:47Z</time>
      </trkpt>
      <trkpt lat="47.23425" lon="6.03332">
        <ele>258.8</ele>
        <time>2019-06-06T12:11:11Z</time>
      </trkpt>
      <trkpt lat="47.23431" lon="6.03321">
        <ele>258.9</ele>
        <time>2019-06-06T12:11:20Z</time>
      </trkpt>
      <trkpt lat="47.2344" lon="6.03315">
        <ele>258.6</ele>
        <time>2019-06-06T12:11:45Z</time>
      </trkpt>
      <trkpt lat="47.23448" lon="6.03322">
        <ele>258.5</ele>
        <time>2019-06-06T12:12:24Z</time>
      </trkpt>
      <trkpt lat="47.23457" lon="6.03321">
        <ele>258.9</ele>
        <time>2019-06-06T12:13:00Z</time>
      </trkpt>
      <trkpt lat="47.23462" lon="6.03309">
        <ele>259.1</ele>
        <time>2019-06-06T12:13:07Z</time>
      </trkpt>
      <trkpt lat="47.23466" lon="6.03297">
        <ele>259.2</ele>
        <time>2019-06-06T12:13:14Z</time>
      </trkpt>
      <trkpt lat="47.23469" lon="6.03284">
        <ele>259.1</ele>
        <time>2019-06-06T12:13:24Z</time>
      </trkpt>
      <trkpt lat="47.23475" lon="6.03272">
        <ele>259.4</ele>
        <time>2019-06-06T12:13:34Z</time>
      </trkpt>
      <trkpt lat="47.23482" lon="6.03262">
        <ele>259.6</ele>
        <time>2019-06-06T12:13:46Z</time>
      </trkpt>
      <trkpt lat="47.23488" lon="6.03251">
        <ele>259.4</ele>
        <time>2019-06-06T12:13:58Z</time>
      </trkpt>
      <trkpt lat="47.23482" lon="6.03242">
        <ele>259.6</ele>
        <time>2019-06-06T12:14:21Z</time>
      </trkpt>
      <trkpt lat="47.23486" lon="6.0323">
        <ele>259.3</ele>
        <time>2019-06-06T12:15:13Z</time>
      </trkpt>
      <trkpt lat="47.2349" lon="6.03217">
        <ele>259.6</ele>
        <time>2019-06-06T12:15:26Z</time>
      </trkpt>
      <trkpt lat="47.23494" lon="6.03204">
        <ele>259.6</ele>
        <time>2019-06-06T12:15:35Z</time>
      </trkpt>
      <trkpt lat="47.23499" lon="6.03191">
        <ele>260</ele>
        <time>2019-06-06T12:15:45Z</time>
      </trkpt>
      <trkpt lat="47.23505" lon="6.03181">
        <ele>260.2</ele>
        <time>2019-06-06T12:15:53Z</time>
      </trkpt>
      <trkpt lat="47.23514" lon="6.03176">
        <ele>259.9</ele>
        <time>2019-06-06T12:16:05Z</time>
      </trkpt>
      <trkpt lat="47.23518" lon="6.03163">
        <ele>260.1</ele>
        <time>2019-06-06T12:16:22Z</time>
      </trkpt>
      <trkpt lat="47.23522" lon="6.03151">
        <ele>259.7</ele>
        <time>2019-06-06T12:16:37Z</time>
      </trkpt>
      <trkpt lat="47.23532" lon="6.03148">
        <ele>259.7</ele>
        <time>2019-06-06T12:17:18Z</time>
      </trkpt>
      <trkpt lat="47.23541" lon="6.0314">
        <ele>259.5</ele>
        <time>2019-06-06T12:17:25Z</time>
      </trkpt>
      <trkpt lat="47.23547" lon="6.03129">
        <ele>259.3</ele>
        <time>2019-06-06T12:17:33Z</time>
      </trkpt>
      <trkpt lat="47.23554" lon="6.0312">
        <ele>259</ele>
        <time>2019-06-06T12:17:44Z</time>
      </trkpt>
      <trkpt lat="47.23564" lon="6.03117">
        <ele>259</ele>
        <time>2019-06-06T12:17:54Z</time>
      </trkpt>
      <trkpt lat="47.23572" lon="6.0311">
        <ele>258.5</ele>
        <time>2019-06-06T12:18:38Z</time>
      </trkpt>
      <trkpt lat="47.23577" lon="6.03098">
        <ele>258.8</ele>
        <time>2019-06-06T12:18:53Z</time>
      </trkpt>
      <trkpt lat="47.23583" lon="6.03087">
        <ele>258.6</ele>
        <time>2019-06-06T12:19:11Z</time>
      </trkpt>
      <trkpt lat="47.23583" lon="6.03074">
        <ele>259.1</ele>
        <time>2019-06-06T12:19:29Z</time>
      </trkpt>
      <trkpt lat="47.23586" lon="6.03061">
        <ele>258.9</ele>
        <time>2019-06-06T12:19:39Z</time>
      </trkpt>
      <trkpt lat="47.2359" lon="6.03048">
        <ele>259.1</ele>
        <time>2019-06-06T12:19:50Z</time>
      </trkpt>
      <trkpt lat="47.23593" lon="6.03033">
        <ele>259.2</ele>
        <time>2019-06-06T12:19:57Z</time>
      </trkpt>
      <trkpt lat="47.23599" lon="6.03022">
        <ele>259.3</ele>
        <time>2019-06-06T12:20:04Z</time>
      </trkpt>
      <trkpt lat="47.23605" lon="6.03011">
        <ele>259.2</ele>
        <time>2019-06-06T12:20:10Z</time>
      </trkpt>
      <trkpt lat="47.23614" lon="6.03004">
        <ele>259.1</ele>
        <time>2019-06-06T12:20:20Z</time>
      </trkpt>
      <trkpt lat="47.23619" lon="6.02992">
        <ele>259.2</ele>
        <time>2019-06-06T12:20:38Z</time>
      </trkpt>
      <trkpt lat="47.23626" lon="6.03002">
        <ele>259.3</ele>
        <time>2019-06-06T12:21:24Z</time>
      </trkpt>
      <trkpt lat="47.23631" lon="6.03013">
        <ele>259.1</ele>
        <time>2019-06-06T12:21:41Z</time>
      </trkpt>
      <trkpt lat="47.2363" lon="6.02999">
        <ele>258.8</ele>
        <time>2019-06-06T12:22:03Z</time>
      </trkpt>
      <trkpt lat="47.23632" lon="6.03012">
        <ele>258.1</ele>
        <time>2019-06-06T12:22:35Z</time>
      </trkpt>
      <trkpt lat="47.23639" lon="6.03021">
        <ele>258.2</ele>
        <time>2019-06-06T12:22:45Z</time>
      </trkpt>
      <trkpt lat="47.23646" lon="6.03031">
        <ele>258.1</ele>
        <time>2019-06-06T12:22:53Z</time>
      </trkpt>
      <trkpt lat="47.23652" lon="6.03044">
        <ele>258.4</ele>
        <time>2019-06-06T12:23:03Z</time>
      </trkpt>
      <trkpt lat="47.23654" lon="6.03057">
        <ele>258.3</ele>
        <time>2019-06-06T12:23:11Z</time>
      </trkpt>
      <trkpt lat="47.23649" lon="6.03069">
        <ele>258.3</ele>
        <time>2019-06-06T12:23:15Z</time>
      </trkpt>
      <trkpt lat="47.23657" lon="6.03077">
        <ele>257.8</ele>
        <time>2019-06-06T12:23:24Z</time>
      </trkpt>
      <trkpt lat="47.23665" lon="6.03083">
        <ele>257.6</ele>
        <time>2019-06-06T12:23:33Z</time>
      </trkpt>
      <trkpt lat="47.23673" lon="6.03091">
        <ele>257.4</ele>
        <time>2019-06-06T12:23:43Z</time>
      </trkpt>
      <trkpt lat="47.2368" lon="6.031">
        <ele>257.4</ele>
        <time>2019-06-06T12:23:52Z</time>
      </trkpt>
      <trkpt lat="47.23687" lon="6.03107">
        <ele>256.8</ele>
        <time>2019-06-06T12:24:07Z</time>
      </trkpt>
      <trkpt lat="47.23694" lon="6.03118">
        <ele>256.7</ele>
        <time>2019-06-06T12:24:18Z</time>
      </trkpt>
      <trkpt lat="47.23702" lon="6.03125">
        <ele>256.6</ele>
        <time>2019-06-06T12:24:26Z</time>
      </trkpt>
      <trkpt lat="47.23709" lon="6.03134">
        <ele>256.6</ele>
        <time>2019-06-06T12:24:35Z</time>
      </trkpt>
      <trkpt lat="47.23718" lon="6.0314">
        <ele>256.6</ele>
        <time>2019-06-06T12:24:43Z</time>
      </trkpt>
      <trkpt lat="47.23725" lon="6.03151">
        <ele>256.6</ele>
        <time>2019-06-06T12:24:54Z</time>
      </trkpt>
      <trkpt lat="47.23731" lon="6.03161">
        <ele>256.3</ele>
        <time>2019-06-06T12:25:03Z</time>
      </trkpt>
      <trkpt lat="47.2374" lon="6.03166">
        <ele>256.3</ele>
        <time>2019-06-06T12:25:14Z</time>
      </trkpt>
      <trkpt lat="47.23748" lon="6.03173">
        <ele>256.3</ele>
        <time>2019-06-06T12:25:23Z</time>
      </trkpt>
      <trkpt lat="47.23754" lon="6.03183">
        <ele>256.4</ele>
        <time>2019-06-06T12:25:31Z</time>
      </trkpt>
      <trkpt lat="47.23759" lon="6.03195">
        <ele>256.9</ele>
        <time>2019-06-06T12:25:40Z</time>
      </trkpt>
      <trkpt lat="47.23764" lon="6.03206">
        <ele>257</ele>
        <time>2019-06-06T12:25:49Z</time>
      </trkpt>
      <trkpt lat="47.23772" lon="6.03214">
        <ele>256.6</ele>
        <time>2019-06-06T12:26:00Z</time>
      </trkpt>
      <trkpt lat="47.23778" lon="6.03205">
        <ele>257.2</ele>
        <time>2019-06-06T12:26:53Z</time>
      </trkpt>
      <trkpt lat="47.23786" lon="6.03212">
        <ele>257.2</ele>
        <time>2019-06-06T12:27:07Z</time>
      </trkpt>
      <trkpt lat="47.2379" lon="6.03225">
        <ele>257.5</ele>
        <time>2019-06-06T12:27:17Z</time>
      </trkpt>
      <trkpt lat="47.23791" lon="6.03239">
        <ele>258</ele>
        <time>2019-06-06T12:27:24Z</time>
      </trkpt>
      <trkpt lat="47.23794" lon="6.03253">
        <ele>258.4</ele>
        <time>2019-06-06T12:27:33Z</time>
      </trkpt>
      <trkpt lat="47.23798" lon="6.03266">
        <ele>258.9</ele>
        <time>2019-06-06T12:27:41Z</time>
      </trkpt>
      <trkpt lat="47.23806" lon="6.03273">
        <ele>259.9</ele>
        <time>2019-06-06T12:28:11Z</time>
      </trkpt>
      <trkpt lat="47.23805" lon="6.03287">
        <ele>260</ele>
        <time>2019-06-06T12:28:51Z</time>
      </trkpt>
      <trkpt lat="47.23809" lon="6.033">
        <ele>259.9</ele>
        <time>2019-06-06T12:29:02Z</time>
      </trkpt>
      <trkpt lat="47.23816" lon="6.0331">
        <ele>260.7</ele>
        <time>2019-06-06T12:29:52Z</time>
      </trkpt>
      <trkpt lat="47.2382" lon="6.03322">
        <ele>261</ele>
        <time>2019-06-06T12:30:02Z</time>
      </trkpt>
      <trkpt lat="47.23824" lon="6.03334">
        <ele>260.6</ele>
        <time>2019-06-06T12:30:11Z</time>
      </trkpt>
      <trkpt lat="47.23828" lon="6.03346">
        <ele>260.4</ele>
        <time>2019-06-06T12:30:20Z</time>
      </trkpt>
      <trkpt lat="47.23832" lon="6.03359">
        <ele>260.3</ele>
        <time>2019-06-06T12:30:29Z</time>
      </trkpt>
      <trkpt lat="47.23837" lon="6.03371">
        <ele>260.5</ele>
        <time>2019-06-06T12:31:26Z</time>
      </trkpt>
      <trkpt lat="47.2384" lon="6.03384">
        <ele>260.2</ele>
        <time>2019-06-06T12:31:36Z</time>
      </trkpt>
      <trkpt lat="47.2385" lon="6.03385">
        <ele>260.1</ele>
        <time>2019-06-06T12:31:46Z</time>
      </trkpt>
      <trkpt lat="47.2386" lon="6.03383">
        <ele>260.1</ele>
        <time>2019-06-06T12:31:54Z</time>
      </trkpt>
      <trkpt lat="47.23869" lon="6.03383">
        <ele>259.5</ele>
        <time>2019-06-06T12:32:07Z</time>
      </trkpt>
      <trkpt lat="47.23878" lon="6.03379">
        <ele>259</ele>
        <time>2019-06-06T12:32:20Z</time>
      </trkpt>
      <trkpt lat="47.23886" lon="6.03373">
        <ele>258.9</ele>
        <time>2019-06-06T12:32:30Z</time>
      </trkpt>
      <trkpt lat="47.23895" lon="6.03371">
        <ele>258.5</ele>
        <time>2019-06-06T12:32:40Z</time>
      </trkpt>
      <trkpt lat="47.23905" lon="6.03371">
        <ele>258.3</ele>
        <time>2019-06-06T12:32:53Z</time>
      </trkpt>
      <trkpt lat="47.23914" lon="6.03368">
        <ele>257.9</ele>
        <time>2019-06-06T12:33:02Z</time>
      </trkpt>
      <trkpt lat="47.23924" lon="6.03366">
        <ele>257.8</ele>
        <time>2019-06-06T12:33:12Z</time>
      </trkpt>
      <trkpt lat="47.23934" lon="6.03365">
        <ele>257.5</ele>
        <time>2019-06-06T12:33:22Z</time>
      </trkpt>
      <trkpt lat="47.23943" lon="6.03363">
        <ele>256.9</ele>
        <time>2019-06-06T12:33:33Z</time>
      </trkpt>
      <trkpt lat="47.23952" lon="6.03358">
        <ele>256.3</ele>
        <time>2019-06-06T12:33:44Z</time>
      </trkpt>
      <trkpt lat="47.23961" lon="6.03362">
        <ele>256.3</ele>
        <time>2019-06-06T12:33:57Z</time>
      </trkpt>
      <trkpt lat="47.23971" lon="6.03358">
        <ele>256.4</ele>
        <time>2019-06-06T12:34:07Z</time>
      </trkpt>
      <trkpt lat="47.2398" lon="6.03352">
        <ele>256.6</ele>
        <time>2019-06-06T12:34:16Z</time>
      </trkpt>
      <trkpt lat="47.23989" lon="6.0335">
        <ele>256.4</ele>
        <time>2019-06-06T12:34:25Z</time>
      </trkpt>
      <trkpt lat="47.23997" lon="6.03343">
        <ele>256</ele>
        <time>2019-06-06T12:34:35Z</time>
      </trkpt>
      <trkpt lat="47.24006" lon="6.03339">
        <ele>256</ele>
        <time>2019-06-06T12:34:49Z</time>
      </trkpt>
      <trkpt lat="47.24013" lon="6.03331">
        <ele>255.8</ele>
        <time>2019-06-06T12:35:04Z</time>
      </trkpt>
      <trkpt lat="47.24021" lon="6.0332">
        <ele>255.8</ele>
        <time>2019-06-06T12:35:13Z</time>
      </trkpt>
      <trkpt lat="47.24028" lon="6.03311">
        <ele>255.7</ele>
        <time>2019-06-06T12:35:20Z</time>
      </trkpt>
      <trkpt lat="47.24035" lon="6.03302">
        <ele>255.7</ele>
        <time>2019-06-06T12:35:28Z</time>
      </trkpt>
      <trkpt lat="47.24044" lon="6.03298">
        <ele>255.7</ele>
        <time>2019-06-06T12:35:34Z</time>
      </trkpt>
      <trkpt lat="47.24052" lon="6.0329">
        <ele>255.6</ele>
        <time>2019-06-06T12:35:39Z</time>
      </trkpt>
      <trkpt lat="47.24061" lon="6.03283">
        <ele>255.6</ele>
        <time>2019-06-06T12:35:48Z</time>
      </trkpt>
      <trkpt lat="47.24069" lon="6.03276">
        <ele>255.9</ele>
        <time>2019-06-06T12:35:56Z</time>
      </trkpt>
      <trkpt lat="47.24077" lon="6.03272">
        <ele>256.3</ele>
        <time>2019-06-06T12:36:35Z</time>
      </trkpt>
      <trkpt lat="47.24085" lon="6.03265">
        <ele>256.3</ele>
        <time>2019-06-06T12:36:45Z</time>
      </trkpt>
      <trkpt lat="47.24093" lon="6.03259">
        <ele>255.7</ele>
        <time>2019-06-06T12:36:56Z</time>
      </trkpt>
      <trkpt lat="47.24102" lon="6.03264">
        <ele>256</ele>
        <time>2019-06-06T12:37:05Z</time>
      </trkpt>
      <trkpt lat="47.24109" lon="6.03255">
        <ele>256.3</ele>
        <time>2019-06-06T12:37:34Z</time>
      </trkpt>
      <trkpt lat="47.24112" lon="6.03242">
        <ele>256.4</ele>
        <time>2019-06-06T12:38:01Z</time>
      </trkpt>
      <trkpt lat="47.24119" lon="6.03233">
        <ele>256</ele>
        <time>2019-06-06T12:38:12Z</time>
      </trkpt>
      <trkpt lat="47.24124" lon="6.03221">
        <ele>255.7</ele>
        <time>2019-06-06T12:38:27Z</time>
      </trkpt>
      <trkpt lat="47.24133" lon="6.03214">
        <ele>256.1</ele>
        <time>2019-06-06T12:38:37Z</time>
      </trkpt>
      <trkpt lat="47.24137" lon="6.03201">
        <ele>255.8</ele>
        <time>2019-06-06T12:38:49Z</time>
      </trkpt>
      <trkpt lat="47.24134" lon="6.03187">
        <ele>255.6</ele>
        <time>2019-06-06T12:38:57Z</time>
      </trkpt>
      <trkpt lat="47.24131" lon="6.03174">
        <ele>256.3</ele>
        <time>2019-06-06T12:39:15Z</time>
      </trkpt>
      <trkpt lat="47.2413" lon="6.03159">
        <ele>256.5</ele>
        <time>2019-06-06T12:39:23Z</time>
      </trkpt>
      <trkpt lat="47.24129" lon="6.03145">
        <ele>256.7</ele>
        <time>2019-06-06T12:39:30Z</time>
      </trkpt>
      <trkpt lat="47.24127" lon="6.03132">
        <ele>257</ele>
        <time>2019-06-06T12:39:38Z</time>
      </trkpt>
      <trkpt lat="47.24121" lon="6.03122">
        <ele>256.6</ele>
        <time>2019-06-06T12:39:50Z</time>
      </trkpt>
      <trkpt lat="47.2412" lon="6.03108">
        <ele>256.7</ele>
        <time>2019-06-06T12:40:26Z</time>
      </trkpt>
      <trkpt lat="47.24129" lon="6.03105">
        <ele>256.2</ele>
        <time>2019-06-06T12:42:59Z</time>
      </trkpt>
      <trkpt lat="47.24132" lon="6.03092">
        <ele>254.9</ele>
        <time>2019-06-06T12:43:23Z</time>
      </trkpt>
      <trkpt lat="47.24134" lon="6.03079">
        <ele>254.8</ele>
        <time>2019-06-06T12:43:55Z</time>
      </trkpt>
      <trkpt lat="47.24143" lon="6.03077">
        <ele>254.2</ele>
        <time>2019-06-06T12:44:10Z</time>
      </trkpt>
      <trkpt lat="47.2415" lon="6.0307">
        <ele>254.9</ele>
        <time>2019-06-06T12:44:28Z</time>
      </trkpt>
      <trkpt lat="47.24157" lon="6.03061">
        <ele>254.8</ele>
        <time>2019-06-06T12:44:43Z</time>
      </trkpt>
      <trkpt lat="47.24163" lon="6.0305">
        <ele>254.3</ele>
        <time>2019-06-06T12:44:53Z</time>
      </trkpt>
      <trkpt lat="47.24169" lon="6.03039">
        <ele>254.7</ele>
        <time>2019-06-06T12:45:03Z</time>
      </trkpt>
      <trkpt lat="47.24173" lon="6.03028">
        <ele>254.9</ele>
        <time>2019-06-06T12:45:13Z</time>
      </trkpt>
      <trkpt lat="47.24179" lon="6.03016">
        <ele>255.3</ele>
        <time>2019-06-06T12:45:26Z</time>
      </trkpt>
      <trkpt lat="47.24184" lon="6.03005">
        <ele>255.5</ele>
        <time>2019-06-06T12:45:38Z</time>
      </trkpt>
      <trkpt lat="47.24182" lon="6.02991">
        <ele>255.7</ele>
        <time>2019-06-06T12:46:12Z</time>
      </trkpt>
      <trkpt lat="47.24192" lon="6.02993">
        <ele>255.8</ele>
        <time>2019-06-06T12:47:15Z</time>
      </trkpt>
      <trkpt lat="47.24192" lon="6.02979">
        <ele>256.4</ele>
        <time>2019-06-06T12:52:25Z</time>
      </trkpt>
      <trkpt lat="47.24184" lon="6.02986">
        <ele>257</ele>
        <time>2019-06-06T12:53:01Z</time>
      </trkpt>
      <trkpt lat="47.2419" lon="6.02995">
        <ele>256.6</ele>
        <time>2019-06-06T12:54:15Z</time>
      </trkpt>
      <trkpt lat="47.24199" lon="6.03">
        <ele>256.9</ele>
        <time>2019-06-06T12:54:29Z</time>
      </trkpt>
      <trkpt lat="47.24208" lon="6.03">
        <ele>257.9</ele>
        <time>2019-06-06T12:54:43Z</time>
      </trkpt>
      <trkpt lat="47.24217" lon="6.02994">
        <ele>258.2</ele>
        <time>2019-06-06T12:54:54Z</time>
      </trkpt>
      <trkpt lat="47.24225" lon="6.02987">
        <ele>259.2</ele>
        <time>2019-06-06T12:55:02Z</time>
      </trkpt>
      <trkpt lat="47.24232" lon="6.02978">
        <ele>259.6</ele>
        <time>2019-06-06T12:55:16Z</time>
      </trkpt>
      <trkpt lat="47.24241" lon="6.02975">
        <ele>259.3</ele>
        <time>2019-06-06T12:55:44Z</time>
      </trkpt>
      <trkpt lat="47.2425" lon="6.02974">
        <ele>259.9</ele>
        <time>2019-06-06T12:56:18Z</time>
      </trkpt>
      <trkpt lat="47.24259" lon="6.02972">
        <ele>259.9</ele>
        <time>2019-06-06T12:56:27Z</time>
      </trkpt>
      <trkpt lat="47.24267" lon="6.02979">
        <ele>260.1</ele>
        <time>2019-06-06T12:56:41Z</time>
      </trkpt>
      <trkpt lat="47.24264" lon="6.02965">
        <ele>259.8</ele>
        <time>2019-06-06T12:57:16Z</time>
      </trkpt>
      <trkpt lat="47.24255" lon="6.02964">
        <ele>260.5</ele>
        <time>2019-06-06T12:58:27Z</time>
      </trkpt>
      <trkpt lat="47.2425" lon="6.02953">
        <ele>260.3</ele>
        <time>2019-06-06T12:59:15Z</time>
      </trkpt>
      <trkpt lat="47.24251" lon="6.02966">
        <ele>260.2</ele>
        <time>2019-06-06T12:59:57Z</time>
      </trkpt>
      <trkpt lat="47.24256" lon="6.02978">
        <ele>260.3</ele>
        <time>2019-06-06T13:00:20Z</time>
      </trkpt>
      <trkpt lat="47.24265" lon="6.02982">
        <ele>260.5</ele>
        <time>2019-06-06T13:00:35Z</time>
      </trkpt>
      <trkpt lat="47.24269" lon="6.0297">
        <ele>260.6</ele>
        <time>2019-06-06T13:01:51Z</time>
      </trkpt>
      <trkpt lat="47.2426" lon="6.02964">
        <ele>260.3</ele>
        <time>2019-06-06T13:02:07Z</time>
      </trkpt>
      <trkpt lat="47.24253" lon="6.02974">
        <ele>260</ele>
        <time>2019-06-06T13:02:23Z</time>
      </trkpt>
      <trkpt lat="47.24243" lon="6.0298">
        <ele>259.9</ele>
        <time>2019-06-06T13:02:30Z</time>
      </trkpt>
      <trkpt lat="47.24233" lon="6.02982">
        <ele>259.9</ele>
        <time>2019-06-06T13:02:35Z</time>
      </trkpt>
      <trkpt lat="47.24222" lon="6.02984">
        <ele>259.6</ele>
        <time>2019-06-06T13:02:40Z</time>
      </trkpt>
      <trkpt lat="47.24212" lon="6.02984">
        <ele>259</ele>
        <time>2019-06-06T13:02:46Z</time>
      </trkpt>
      <trkpt lat="47.24203" lon="6.02981">
        <ele>258.3</ele>
        <time>2019-06-06T13:02:59Z</time>
      </trkpt>
      <trkpt lat="47.242" lon="6.02969">
        <ele>257.9</ele>
        <time>2019-06-06T13:03:19Z</time>
      </trkpt>
      <trkpt lat="47.24198" lon="6.02955">
        <ele>257.8</ele>
        <time>2019-06-06T13:03:30Z</time>
      </trkpt>
      <trkpt lat="47.242" lon="6.02941">
        <ele>257.3</ele>
        <time>2019-06-06T13:03:40Z</time>
      </trkpt>
      <trkpt lat="47.24199" lon="6.02927">
        <ele>257</ele>
        <time>2019-06-06T13:03:56Z</time>
      </trkpt>
      <trkpt lat="47.24207" lon="6.02921">
        <ele>257.1</ele>
        <time>2019-06-06T13:04:04Z</time>
      </trkpt>
      <trkpt lat="47.24214" lon="6.02912">
        <ele>257.6</ele>
        <time>2019-06-06T13:04:15Z</time>
      </trkpt>
      <trkpt lat="47.24213" lon="6.02897">
        <ele>256.9</ele>
        <time>2019-06-06T13:04:24Z</time>
      </trkpt>
      <trkpt lat="47.24221" lon="6.02888">
        <ele>257</ele>
        <time>2019-06-06T13:04:32Z</time>
      </trkpt>
      <trkpt lat="47.24229" lon="6.02881">
        <ele>257.3</ele>
        <time>2019-06-06T13:04:49Z</time>
      </trkpt>
      <trkpt lat="47.24231" lon="6.02868">
        <ele>256.6</ele>
        <time>2019-06-06T13:05:39Z</time>
      </trkpt>
      <trkpt lat="47.24236" lon="6.02857">
        <ele>256.9</ele>
        <time>2019-06-06T13:06:01Z</time>
      </trkpt>
      <trkpt lat="47.24228" lon="6.02851">
        <ele>256.4</ele>
        <time>2019-06-06T13:06:57Z</time>
      </trkpt>
      <trkpt lat="47.24226" lon="6.02838">
        <ele>256.3</ele>
        <time>2019-06-06T13:07:32Z</time>
      </trkpt>
      <trkpt lat="47.2423" lon="6.02825">
        <ele>256.5</ele>
        <time>2019-06-06T13:07:42Z</time>
      </trkpt>
      <trkpt lat="47.24234" lon="6.02813">
        <ele>256.5</ele>
        <time>2019-06-06T13:07:53Z</time>
      </trkpt>
      <trkpt lat="47.24236" lon="6.02799">
        <ele>256.2</ele>
        <time>2019-06-06T13:08:03Z</time>
      </trkpt>
      <trkpt lat="47.24239" lon="6.02785">
        <ele>256.3</ele>
        <time>2019-06-06T13:08:13Z</time>
      </trkpt>
      <trkpt lat="47.24239" lon="6.02772">
        <ele>256.4</ele>
        <time>2019-06-06T13:08:21Z</time>
      </trkpt>
      <trkpt lat="47.24241" lon="6.02758">
        <ele>256.8</ele>
        <time>2019-06-06T13:08:31Z</time>
      </trkpt>
      <trkpt lat="47.24242" lon="6.02744">
        <ele>256.8</ele>
        <time>2019-06-06T13:08:39Z</time>
      </trkpt>
      <trkpt lat="47.24245" lon="6.02732">
        <ele>256.9</ele>
        <time>2019-06-06T13:08:48Z</time>
      </trkpt>
      <trkpt lat="47.2425" lon="6.0272">
        <ele>256.9</ele>
        <time>2019-06-06T13:08:58Z</time>
      </trkpt>
      <trkpt lat="47.24249" lon="6.02706">
        <ele>256.7</ele>
        <time>2019-06-06T13:09:06Z</time>
      </trkpt>
      <trkpt lat="47.24246" lon="6.02693">
        <ele>256.5</ele>
        <time>2019-06-06T13:09:21Z</time>
      </trkpt>
      <trkpt lat="47.24247" lon="6.02679">
        <ele>256.6</ele>
        <time>2019-06-06T13:09:31Z</time>
      </trkpt>
      <trkpt lat="47.24248" lon="6.02665">
        <ele>256.1</ele>
        <time>2019-06-06T13:09:54Z</time>
      </trkpt>
      <trkpt lat="47.24249" lon="6.02652">
        <ele>256.3</ele>
        <time>2019-06-06T13:10:03Z</time>
      </trkpt>
      <trkpt lat="47.24252" lon="6.02638">
        <ele>256.5</ele>
        <time>2019-06-06T13:10:13Z</time>
      </trkpt>
      <trkpt lat="47.24253" lon="6.02625">
        <ele>257</ele>
        <time>2019-06-06T13:10:22Z</time>
      </trkpt>
      <trkpt lat="47.24253" lon="6.02611">
        <ele>257.3</ele>
        <time>2019-06-06T13:10:33Z</time>
      </trkpt>
      <trkpt lat="47.24256" lon="6.02598">
        <ele>257.6</ele>
        <time>2019-06-06T13:10:44Z</time>
      </trkpt>
      <trkpt lat="47.24254" lon="6.02585">
        <ele>257.2</ele>
        <time>2019-06-06T13:10:59Z</time>
      </trkpt>
      <trkpt lat="47.24252" lon="6.02571">
        <ele>257.4</ele>
        <time>2019-06-06T13:11:07Z</time>
      </trkpt>
      <trkpt lat="47.24253" lon="6.02558">
        <ele>256.9</ele>
        <time>2019-06-06T13:11:26Z</time>
      </trkpt>
      <trkpt lat="47.24251" lon="6.02545">
        <ele>257.1</ele>
        <time>2019-06-06T13:12:01Z</time>
      </trkpt>
      <trkpt lat="47.24255" lon="6.02556">
        <ele>257.3</ele>
        <time>2019-06-06T13:13:11Z</time>
      </trkpt>
      <trkpt lat="47.24251" lon="6.02544">
        <ele>257.3</ele>
        <time>2019-06-06T13:14:16Z</time>
      </trkpt>
      <trkpt lat="47.24256" lon="6.02532">
        <ele>257.5</ele>
        <time>2019-06-06T13:15:43Z</time>
      </trkpt>
      <trkpt lat="47.24258" lon="6.02518">
        <ele>258.3</ele>
        <time>2019-06-06T13:15:56Z</time>
      </trkpt>
      <trkpt lat="47.2426" lon="6.02505">
        <ele>259.5</ele>
        <time>2019-06-06T13:16:10Z</time>
      </trkpt>
      <trkpt lat="47.24263" lon="6.02492">
        <ele>259.9</ele>
        <time>2019-06-06T13:16:20Z</time>
      </trkpt>
      <trkpt lat="47.24262" lon="6.02478">
        <ele>259.9</ele>
        <time>2019-06-06T13:16:31Z</time>
      </trkpt>
      <trkpt lat="47.24261" lon="6.02464">
        <ele>260.1</ele>
        <time>2019-06-06T13:16:41Z</time>
      </trkpt>
      <trkpt lat="47.2426" lon="6.0245">
        <ele>260.2</ele>
        <time>2019-06-06T13:16:51Z</time>
      </trkpt>
      <trkpt lat="47.24259" lon="6.02436">
        <ele>260.3</ele>
        <time>2019-06-06T13:17:06Z</time>
      </trkpt>
      <trkpt lat="47.24254" lon="6.02424">
        <ele>260.4</ele>
        <time>2019-06-06T13:17:30Z</time>
      </trkpt>
      <trkpt lat="47.24254" lon="6.02411">
        <ele>260.2</ele>
        <time>2019-06-06T13:17:42Z</time>
      </trkpt>
      <trkpt lat="47.24253" lon="6.0239">
        <ele>259</ele>
        <time>2019-06-06T13:17:55Z</time>
      </trkpt>
      <trkpt lat="47.24255" lon="6.02377">
        <ele>259.6</ele>
        <time>2019-06-06T13:18:07Z</time>
      </trkpt>
      <trkpt lat="47.2425" lon="6.02364">
        <ele>259.6</ele>
        <time>2019-06-06T13:18:15Z</time>
      </trkpt>
      <trkpt lat="47.24247" lon="6.02351">
        <ele>259.9</ele>
        <time>2019-06-06T13:18:29Z</time>
      </trkpt>
      <trkpt lat="47.24245" lon="6.02337">
        <ele>259.7</ele>
        <time>2019-06-06T13:18:40Z</time>
      </trkpt>
      <trkpt lat="47.24239" lon="6.02327">
        <ele>259.8</ele>
        <time>2019-06-06T13:18:50Z</time>
      </trkpt>
      <trkpt lat="47.24236" lon="6.02314">
        <ele>259.7</ele>
        <time>2019-06-06T13:19:03Z</time>
      </trkpt>
      <trkpt lat="47.2423" lon="6.02303">
        <ele>260.2</ele>
        <time>2019-06-06T13:19:15Z</time>
      </trkpt>
      <trkpt lat="47.24223" lon="6.02293">
        <ele>260.5</ele>
        <time>2019-06-06T13:19:27Z</time>
      </trkpt>
      <trkpt lat="47.2422" lon="6.02279">
        <ele>260.5</ele>
        <time>2019-06-06T13:19:37Z</time>
      </trkpt>
      <trkpt lat="47.24215" lon="6.02268">
        <ele>260.3</ele>
        <time>2019-06-06T13:19:48Z</time>
      </trkpt>
      <trkpt lat="47.24206" lon="6.02262">
        <ele>260.2</ele>
        <time>2019-06-06T13:20:01Z</time>
      </trkpt>
      <trkpt lat="47.24197" lon="6.02262">
        <ele>260.4</ele>
        <time>2019-06-06T13:20:12Z</time>
      </trkpt>
      <trkpt lat="47.24188" lon="6.02259">
        <ele>260</ele>
        <time>2019-06-06T13:20:22Z</time>
      </trkpt>
      <trkpt lat="47.24181" lon="6.0225">
        <ele>260.1</ele>
        <time>2019-06-06T13:20:29Z</time>
      </trkpt>
      <trkpt lat="47.24176" lon="6.02239">
        <ele>260.3</ele>
        <time>2019-06-06T13:20:36Z</time>
      </trkpt>
      <trkpt lat="47.24173" lon="6.02226">
        <ele>260.2</ele>
        <time>2019-06-06T13:20:45Z</time>
      </trkpt>
      <trkpt lat="47.24166" lon="6.02216">
        <ele>260.3</ele>
        <time>2019-06-06T13:20:55Z</time>
      </trkpt>
      <trkpt lat="47.24157" lon="6.02215">
        <ele>260.5</ele>
        <time>2019-06-06T13:21:07Z</time>
      </trkpt>
      <trkpt lat="47.2415" lon="6.02206">
        <ele>260.3</ele>
        <time>2019-06-06T13:23:36Z</time>
      </trkpt>
      <trkpt lat="47.24143" lon="6.02195">
        <ele>260.4</ele>
        <time>2019-06-06T13:23:49Z</time>
      </trkpt>
      <trkpt lat="47.24136" lon="6.02186">
        <ele>260.4</ele>
        <time>2019-06-06T13:23:59Z</time>
      </trkpt>
      <trkpt lat="47.2413" lon="6.02176">
        <ele>260.2</ele>
        <time>2019-06-06T13:24:11Z</time>
      </trkpt>
      <trkpt lat="47.24122" lon="6.0217">
        <ele>260.6</ele>
        <time>2019-06-06T13:24:31Z</time>
      </trkpt>
      <trkpt lat="47.24117" lon="6.02158">
        <ele>259.8</ele>
        <time>2019-06-06T13:25:02Z</time>
      </trkpt>
      <trkpt lat="47.24123" lon="6.02147">
        <ele>258.9</ele>
        <time>2019-06-06T13:25:20Z</time>
      </trkpt>
      <trkpt lat="47.24129" lon="6.02137">
        <ele>258.4</ele>
        <time>2019-06-06T13:25:32Z</time>
      </trkpt>
      <trkpt lat="47.24128" lon="6.02123">
        <ele>258.3</ele>
        <time>2019-06-06T13:25:53Z</time>
      </trkpt>
      <trkpt lat="47.2413" lon="6.02102">
        <ele>249.9</ele>
        <time>2019-06-06T13:47:44Z</time>
      </trkpt>
      <trkpt lat="47.2413" lon="6.02088">
        <ele>250.1</ele>
        <time>2019-06-06T13:47:55Z</time>
      </trkpt>
      <trkpt lat="47.24135" lon="6.02077">
        <ele>250.5</ele>
        <time>2019-06-06T13:48:10Z</time>
      </trkpt>
      <trkpt lat="47.24137" lon="6.02061">
        <ele>251</ele>
        <time>2019-06-06T13:48:29Z</time>
      </trkpt>
      <trkpt lat="47.24139" lon="6.0204">
        <ele>252</ele>
        <time>2019-06-06T13:49:14Z</time>
      </trkpt>
      <trkpt lat="47.24131" lon="6.02045">
        <ele>252.2</ele>
        <time>2019-06-06T13:49:36Z</time>
      </trkpt>
      <trkpt lat="47.24121" lon="6.02044">
        <ele>252</ele>
        <time>2019-06-06T13:49:43Z</time>
      </trkpt>
      <trkpt lat="47.2413" lon="6.02052">
        <ele>251.7</ele>
        <time>2019-06-06T13:50:09Z</time>
      </trkpt>
      <trkpt lat="47.24139" lon="6.02053">
        <ele>252.1</ele>
        <time>2019-06-06T13:50:21Z</time>
      </trkpt>
      <trkpt lat="47.24153" lon="6.02018">
        <ele>252</ele>
        <time>2019-06-06T13:50:43Z</time>
      </trkpt>
      <trkpt lat="47.24148" lon="6.02029">
        <ele>252</ele>
        <time>2019-06-06T13:51:20Z</time>
      </trkpt>
      <trkpt lat="47.24159" lon="6.02028">
        <ele>252</ele>
        <time>2019-06-06T13:51:37Z</time>
      </trkpt>
      <trkpt lat="47.24149" lon="6.02026">
        <ele>251.3</ele>
        <time>2019-06-06T13:52:58Z</time>
      </trkpt>
      <trkpt lat="47.24152" lon="6.02044">
        <ele>250</ele>
        <time>2019-06-06T13:53:56Z</time>
      </trkpt>
      <trkpt lat="47.24143" lon="6.02064">
        <ele>250.6</ele>
        <time>2019-06-06T13:54:04Z</time>
      </trkpt>
      <trkpt lat="47.24136" lon="6.02055">
        <ele>250.8</ele>
        <time>2019-06-06T13:54:20Z</time>
      </trkpt>
      <trkpt lat="47.24128" lon="6.02049">
        <ele>250.9</ele>
        <time>2019-06-06T13:54:34Z</time>
      </trkpt>
      <trkpt lat="47.24119" lon="6.02046">
        <ele>250.4</ele>
        <time>2019-06-06T13:54:53Z</time>
      </trkpt>
      <trkpt lat="47.2411" lon="6.02043">
        <ele>249.6</ele>
        <time>2019-06-06T13:55:26Z</time>
      </trkpt>
      <trkpt lat="47.24102" lon="6.0204">
        <ele>249.5</ele>
        <time>2019-06-06T13:55:42Z</time>
      </trkpt>
      <trkpt lat="47.24092" lon="6.02037">
        <ele>249.3</ele>
        <time>2019-06-06T13:55:55Z</time>
      </trkpt>
      <trkpt lat="47.24084" lon="6.02032">
        <ele>249</ele>
        <time>2019-06-06T13:56:26Z</time>
      </trkpt>
      <trkpt lat="47.24075" lon="6.02029">
        <ele>248.6</ele>
        <time>2019-06-06T13:56:40Z</time>
      </trkpt>
      <trkpt lat="47.24066" lon="6.02026">
        <ele>248.3</ele>
        <time>2019-06-06T13:56:56Z</time>
      </trkpt>
      <trkpt lat="47.24057" lon="6.0202">
        <ele>248</ele>
        <time>2019-06-06T13:57:09Z</time>
      </trkpt>
      <trkpt lat="47.24052" lon="6.02009">
        <ele>247.9</ele>
        <time>2019-06-06T13:57:18Z</time>
      </trkpt>
      <trkpt lat="47.24042" lon="6.02007">
        <ele>247.8</ele>
        <time>2019-06-06T13:57:31Z</time>
      </trkpt>
      <trkpt lat="47.24033" lon="6.02007">
        <ele>247.7</ele>
        <time>2019-06-06T13:57:43Z</time>
      </trkpt>
      <trkpt lat="47.24023" lon="6.02007">
        <ele>247.8</ele>
        <time>2019-06-06T13:57:54Z</time>
      </trkpt>
      <trkpt lat="47.24016" lon="6.01998">
        <ele>247.9</ele>
        <time>2019-06-06T13:58:06Z</time>
      </trkpt>
      <trkpt lat="47.24016" lon="6.01985">
        <ele>248.3</ele>
        <time>2019-06-06T14:01:52Z</time>
      </trkpt>
      <trkpt lat="47.24005" lon="6.01984">
        <ele>248.2</ele>
        <time>2019-06-06T14:02:08Z</time>
      </trkpt>
      <trkpt lat="47.23997" lon="6.01991">
        <ele>248.2</ele>
        <time>2019-06-06T14:02:18Z</time>
      </trkpt>
      <trkpt lat="47.23991" lon="6.02002">
        <ele>248.3</ele>
        <time>2019-06-06T14:02:29Z</time>
      </trkpt>
      <trkpt lat="47.23995" lon="6.02015">
        <ele>248.4</ele>
        <time>2019-06-06T14:02:37Z</time>
      </trkpt>
      <trkpt lat="47.23994" lon="6.02028">
        <ele>248</ele>
        <time>2019-06-06T14:02:54Z</time>
      </trkpt>
      <trkpt lat="47.23988" lon="6.02039">
        <ele>248.5</ele>
        <time>2019-06-06T14:03:07Z</time>
      </trkpt>
      <trkpt lat="47.23979" lon="6.02046">
        <ele>248.9</ele>
        <time>2019-06-06T14:03:20Z</time>
      </trkpt>
      <trkpt lat="47.23973" lon="6.02056">
        <ele>249.3</ele>
        <time>2019-06-06T14:03:31Z</time>
      </trkpt>
      <trkpt lat="47.23971" lon="6.02069">
        <ele>249.2</ele>
        <time>2019-06-06T14:03:40Z</time>
      </trkpt>
      <trkpt lat="47.23965" lon="6.02079">
        <ele>248.6</ele>
        <time>2019-06-06T14:03:54Z</time>
      </trkpt>
      <trkpt lat="47.23963" lon="6.02092">
        <ele>248.6</ele>
        <time>2019-06-06T14:04:18Z</time>
      </trkpt>
      <trkpt lat="47.23954" lon="6.0209">
        <ele>248.6</ele>
        <time>2019-06-06T14:04:30Z</time>
      </trkpt>
      <trkpt lat="47.23947" lon="6.02099">
        <ele>248.3</ele>
        <time>2019-06-06T14:04:48Z</time>
      </trkpt>
      <trkpt lat="47.23953" lon="6.0211">
        <ele>247.9</ele>
        <time>2019-06-06T14:04:58Z</time>
      </trkpt>
      <trkpt lat="47.23959" lon="6.0212">
        <ele>247.6</ele>
        <time>2019-06-06T14:05:03Z</time>
      </trkpt>
      <trkpt lat="47.23964" lon="6.02131">
        <ele>247</ele>
        <time>2019-06-06T14:05:12Z</time>
      </trkpt>
      <trkpt lat="47.23968" lon="6.02145">
        <ele>246.8</ele>
        <time>2019-06-06T14:05:20Z</time>
      </trkpt>
      <trkpt lat="47.23975" lon="6.02158">
        <ele>243.9</ele>
        <time>2019-06-06T14:05:27Z</time>
      </trkpt>
      <trkpt lat="47.23976" lon="6.02173">
        <ele>243.6</ele>
        <time>2019-06-06T14:05:36Z</time>
      </trkpt>
      <trkpt lat="47.23973" lon="6.02185">
        <ele>246.9</ele>
        <time>2019-06-06T14:05:52Z</time>
      </trkpt>
      <trkpt lat="47.2398" lon="6.02196">
        <ele>246.6</ele>
        <time>2019-06-06T14:06:09Z</time>
      </trkpt>
      <trkpt lat="47.23987" lon="6.02221">
        <ele>243.4</ele>
        <time>2019-06-06T14:06:12Z</time>
      </trkpt>
      <trkpt lat="47.24001" lon="6.02221">
        <ele>246.8</ele>
        <time>2019-06-06T14:13:47Z</time>
      </trkpt>
      <trkpt lat="47.24009" lon="6.02212">
        <ele>246.8</ele>
        <time>2019-06-06T14:14:02Z</time>
      </trkpt>
      <trkpt lat="47.24025" lon="6.02194">
        <ele>245</ele>
        <time>2019-06-06T14:14:58Z</time>
      </trkpt>
      <trkpt lat="47.24032" lon="6.02179">
        <ele>244.8</ele>
        <time>2019-06-06T14:15:10Z</time>
      </trkpt>
      <trkpt lat="47.24017" lon="6.02164">
        <ele>244.3</ele>
        <time>2019-06-06T14:15:40Z</time>
      </trkpt>
      <trkpt lat="47.24009" lon="6.02154">
        <ele>244.3</ele>
        <time>2019-06-06T14:16:24Z</time>
      </trkpt>
      <trkpt lat="47.23998" lon="6.02138">
        <ele>244.8</ele>
        <time>2019-06-06T14:16:38Z</time>
      </trkpt>
      <trkpt lat="47.23988" lon="6.02126">
        <ele>245.3</ele>
        <time>2019-06-06T14:16:53Z</time>
      </trkpt>
      <trkpt lat="47.23975" lon="6.02109">
        <ele>245.9</ele>
        <time>2019-06-06T14:17:02Z</time>
      </trkpt>
      <trkpt lat="47.23952" lon="6.02085">
        <ele>245.7</ele>
        <time>2019-06-06T14:17:49Z</time>
      </trkpt>
      <trkpt lat="47.23941" lon="6.02076">
        <ele>245.5</ele>
        <time>2019-06-06T14:18:03Z</time>
      </trkpt>
      <trkpt lat="47.23926" lon="6.02058">
        <ele>245.7</ele>
        <time>2019-06-06T14:18:15Z</time>
      </trkpt>
      <trkpt lat="47.23908" lon="6.02036">
        <ele>244</ele>
        <time>2019-06-06T14:18:53Z</time>
      </trkpt>
      <trkpt lat="47.23899" lon="6.02015">
        <ele>247.3</ele>
        <time>2019-06-06T14:19:53Z</time>
      </trkpt>
      <trkpt lat="47.23891" lon="6.0203">
        <ele>245.5</ele>
        <time>2019-06-06T14:20:01Z</time>
      </trkpt>
      <trkpt lat="47.23881" lon="6.02007">
        <ele>247.5</ele>
        <time>2019-06-06T14:20:09Z</time>
      </trkpt>
      <trkpt lat="47.2387" lon="6.02007">
        <ele>247.4</ele>
        <time>2019-06-06T14:20:17Z</time>
      </trkpt>
      <trkpt lat="47.23862" lon="6.01999">
        <ele>247.4</ele>
        <time>2019-06-06T14:20:29Z</time>
      </trkpt>
      <trkpt lat="47.23861" lon="6.02013">
        <ele>245.5</ele>
        <time>2019-06-06T14:20:39Z</time>
      </trkpt>
      <trkpt lat="47.23853" lon="6.02004">
        <ele>245.4</ele>
        <time>2019-06-06T14:21:22Z</time>
      </trkpt>
      <trkpt lat="47.23847" lon="6.01996">
        <ele>245.5</ele>
        <time>2019-06-06T14:21:30Z</time>
      </trkpt>
      <trkpt lat="47.23843" lon="6.01983">
        <ele>245.3</ele>
        <time>2019-06-06T14:21:38Z</time>
      </trkpt>
      <trkpt lat="47.23834" lon="6.01982">
        <ele>245.6</ele>
        <time>2019-06-06T14:21:48Z</time>
      </trkpt>
      <trkpt lat="47.23831" lon="6.01995">
        <ele>245.4</ele>
        <time>2019-06-06T14:22:10Z</time>
      </trkpt>
      <trkpt lat="47.23822" lon="6.01992">
        <ele>245.6</ele>
        <time>2019-06-06T14:23:05Z</time>
      </trkpt>
      <trkpt lat="47.23815" lon="6.02001">
        <ele>245.7</ele>
        <time>2019-06-06T14:23:18Z</time>
      </trkpt>
      <trkpt lat="47.23812" lon="6.02014">
        <ele>245.8</ele>
        <time>2019-06-06T14:23:41Z</time>
      </trkpt>
      <trkpt lat="47.23803" lon="6.0202">
        <ele>245.5</ele>
        <time>2019-06-06T14:23:54Z</time>
      </trkpt>
      <trkpt lat="47.23801" lon="6.02033">
        <ele>245.8</ele>
        <time>2019-06-06T14:24:04Z</time>
      </trkpt>
      <trkpt lat="47.23796" lon="6.02044">
        <ele>245.8</ele>
        <time>2019-06-06T14:24:17Z</time>
      </trkpt>
      <trkpt lat="47.23787" lon="6.02048">
        <ele>246.1</ele>
        <time>2019-06-06T14:24:29Z</time>
      </trkpt>
      <trkpt lat="47.23778" lon="6.02046">
        <ele>245.9</ele>
        <time>2019-06-06T14:24:40Z</time>
      </trkpt>
      <trkpt lat="47.2377" lon="6.02058">
        <ele>245.8</ele>
        <time>2019-06-06T14:24:51Z</time>
      </trkpt>
      <trkpt lat="47.23763" lon="6.02067">
        <ele>246.4</ele>
        <time>2019-06-06T14:25:01Z</time>
      </trkpt>
      <trkpt lat="47.23759" lon="6.0208">
        <ele>246.4</ele>
        <time>2019-06-06T14:25:08Z</time>
      </trkpt>
      <trkpt lat="47.23759" lon="6.02094">
        <ele>246.6</ele>
        <time>2019-06-06T14:25:23Z</time>
      </trkpt>
      <trkpt lat="47.23763" lon="6.02106">
        <ele>246.3</ele>
        <time>2019-06-06T14:25:51Z</time>
      </trkpt>
      <trkpt lat="47.23769" lon="6.02117">
        <ele>246.5</ele>
        <time>2019-06-06T14:26:00Z</time>
      </trkpt>
      <trkpt lat="47.23775" lon="6.02129">
        <ele>246</ele>
        <time>2019-06-06T14:26:10Z</time>
      </trkpt>
      <trkpt lat="47.2378" lon="6.02142">
        <ele>246.7</ele>
        <time>2019-06-06T14:26:18Z</time>
      </trkpt>
      <trkpt lat="47.23784" lon="6.02155">
        <ele>246.6</ele>
        <time>2019-06-06T14:26:28Z</time>
      </trkpt>
      <trkpt lat="47.23786" lon="6.02169">
        <ele>246.5</ele>
        <time>2019-06-06T14:26:36Z</time>
      </trkpt>
      <trkpt lat="47.23788" lon="6.02182">
        <ele>246.5</ele>
        <time>2019-06-06T14:26:56Z</time>
      </trkpt>
      <trkpt lat="47.23793" lon="6.02192">
        <ele>246.6</ele>
        <time>2019-06-06T14:27:23Z</time>
      </trkpt>
      <trkpt lat="47.23803" lon="6.02189">
        <ele>247.1</ele>
        <time>2019-06-06T14:27:34Z</time>
      </trkpt>
      <trkpt lat="47.23811" lon="6.02195">
        <ele>247.9</ele>
        <time>2019-06-06T14:27:44Z</time>
      </trkpt>
      <trkpt lat="47.2382" lon="6.022">
        <ele>248.4</ele>
        <time>2019-06-06T14:27:54Z</time>
      </trkpt>
      <trkpt lat="47.23825" lon="6.02213">
        <ele>248.2</ele>
        <time>2019-06-06T14:28:03Z</time>
      </trkpt>
      <trkpt lat="47.23834" lon="6.02211">
        <ele>248</ele>
        <time>2019-06-06T14:28:22Z</time>
      </trkpt>
      <trkpt lat="47.23844" lon="6.02198">
        <ele>247.8</ele>
        <time>2019-06-06T14:28:36Z</time>
      </trkpt>
      <trkpt lat="47.23846" lon="6.02185">
        <ele>247.3</ele>
        <time>2019-06-06T14:28:48Z</time>
      </trkpt>
      <trkpt lat="47.23847" lon="6.022">
        <ele>247.1</ele>
        <time>2019-06-06T14:29:25Z</time>
      </trkpt>
      <trkpt lat="47.23852" lon="6.02212">
        <ele>247.6</ele>
        <time>2019-06-06T14:30:01Z</time>
      </trkpt>
      <trkpt lat="47.23861" lon="6.02212">
        <ele>247.8</ele>
        <time>2019-06-06T14:30:11Z</time>
      </trkpt>
      <trkpt lat="47.23869" lon="6.0222">
        <ele>247.8</ele>
        <time>2019-06-06T14:30:21Z</time>
      </trkpt>
      <trkpt lat="47.23877" lon="6.02232">
        <ele>248.2</ele>
        <time>2019-06-06T14:30:27Z</time>
      </trkpt>
      <trkpt lat="47.23881" lon="6.02244">
        <ele>248.5</ele>
        <time>2019-06-06T14:30:37Z</time>
      </trkpt>
      <trkpt lat="47.23874" lon="6.02253">
        <ele>248.6</ele>
        <time>2019-06-06T14:30:48Z</time>
      </trkpt>
      <trkpt lat="47.23864" lon="6.02255">
        <ele>248.5</ele>
        <time>2019-06-06T14:30:54Z</time>
      </trkpt>
      <trkpt lat="47.23863" lon="6.02272">
        <ele>248</ele>
        <time>2019-06-06T14:31:07Z</time>
      </trkpt>
      <trkpt lat="47.2386" lon="6.02285">
        <ele>248</ele>
        <time>2019-06-06T14:31:20Z</time>
      </trkpt>
      <trkpt lat="47.23857" lon="6.02298">
        <ele>248</ele>
        <time>2019-06-06T14:31:32Z</time>
      </trkpt>
      <trkpt lat="47.23859" lon="6.02311">
        <ele>248</ele>
        <time>2019-06-06T14:31:41Z</time>
      </trkpt>
      <trkpt lat="47.2385" lon="6.02317">
        <ele>247.9</ele>
        <time>2019-06-06T14:31:50Z</time>
      </trkpt>
      <trkpt lat="47.23842" lon="6.02322">
        <ele>248</ele>
        <time>2019-06-06T14:32:00Z</time>
      </trkpt>
      <trkpt lat="47.2384" lon="6.02336">
        <ele>248</ele>
        <time>2019-06-06T14:32:11Z</time>
      </trkpt>
      <trkpt lat="47.23836" lon="6.02349">
        <ele>248.1</ele>
        <time>2019-06-06T14:32:21Z</time>
      </trkpt>
      <trkpt lat="47.23827" lon="6.02354">
        <ele>247.8</ele>
        <time>2019-06-06T14:32:35Z</time>
      </trkpt>
      <trkpt lat="47.23837" lon="6.02355">
        <ele>247.7</ele>
        <time>2019-06-06T14:32:52Z</time>
      </trkpt>
      <trkpt lat="47.23828" lon="6.02355">
        <ele>248.1</ele>
        <time>2019-06-06T14:33:18Z</time>
      </trkpt>
      <trkpt lat="47.23819" lon="6.02358">
        <ele>248.5</ele>
        <time>2019-06-06T14:33:59Z</time>
      </trkpt>
      <trkpt lat="47.2382" lon="6.02371">
        <ele>248.9</ele>
        <time>2019-06-06T14:34:09Z</time>
      </trkpt>
      <trkpt lat="47.23814" lon="6.02382">
        <ele>248.7</ele>
        <time>2019-06-06T14:34:18Z</time>
      </trkpt>
      <trkpt lat="47.2381" lon="6.02393">
        <ele>248.4</ele>
        <time>2019-06-06T14:34:31Z</time>
      </trkpt>
      <trkpt lat="47.23802" lon="6.02401">
        <ele>248.2</ele>
        <time>2019-06-06T14:34:44Z</time>
      </trkpt>
      <trkpt lat="47.23816" lon="6.02431">
        <ele>251.2</ele>
        <time>2019-06-06T15:05:04Z</time>
      </trkpt>
      <trkpt lat="47.23814" lon="6.02446">
        <ele>251</ele>
        <time>2019-06-06T15:05:22Z</time>
      </trkpt>
      <trkpt lat="47.23823" lon="6.02443">
        <ele>251.1</ele>
        <time>2019-06-06T15:05:43Z</time>
      </trkpt>
      <trkpt lat="47.23827" lon="6.02428">
        <ele>251.2</ele>
        <time>2019-06-06T15:05:51Z</time>
      </trkpt>
      <trkpt lat="47.23827" lon="6.02429">
        <ele>250.4</ele>
        <time>2019-06-06T15:06:10Z</time>
      </trkpt>
      <trkpt lat="47.23835" lon="6.02439">
        <ele>250.2</ele>
        <time>2019-06-06T15:07:05Z</time>
      </trkpt>
      <trkpt lat="47.23838" lon="6.02453">
        <ele>250.3</ele>
        <time>2019-06-06T15:07:12Z</time>
      </trkpt>
      <trkpt lat="47.23848" lon="6.02446">
        <ele>250.8</ele>
        <time>2019-06-06T15:07:19Z</time>
      </trkpt>
      <trkpt lat="47.23853" lon="6.02457">
        <ele>250.9</ele>
        <time>2019-06-06T15:07:24Z</time>
      </trkpt>
      <trkpt lat="47.23858" lon="6.0247">
        <ele>250.9</ele>
        <time>2019-06-06T15:07:34Z</time>
      </trkpt>
      <trkpt lat="47.23866" lon="6.02478">
        <ele>251.1</ele>
        <time>2019-06-06T15:07:47Z</time>
      </trkpt>
      <trkpt lat="47.2387" lon="6.02491">
        <ele>250.9</ele>
        <time>2019-06-06T15:07:55Z</time>
      </trkpt>
      <trkpt lat="47.23869" lon="6.02505">
        <ele>251</ele>
        <time>2019-06-06T15:08:02Z</time>
      </trkpt>
      <trkpt lat="47.23867" lon="6.02518">
        <ele>250.8</ele>
        <time>2019-06-06T15:08:15Z</time>
      </trkpt>
      <trkpt lat="47.23874" lon="6.02509">
        <ele>251.3</ele>
        <time>2019-06-06T15:09:36Z</time>
      </trkpt>
      <trkpt lat="47.23883" lon="6.02505">
        <ele>251.3</ele>
        <time>2019-06-06T15:09:42Z</time>
      </trkpt>
      <trkpt lat="47.23892" lon="6.02511">
        <ele>251.2</ele>
        <time>2019-06-06T15:09:49Z</time>
      </trkpt>
      <trkpt lat="47.23901" lon="6.02513">
        <ele>251.1</ele>
        <time>2019-06-06T15:09:59Z</time>
      </trkpt>
      <trkpt lat="47.2391" lon="6.02522">
        <ele>250.8</ele>
        <time>2019-06-06T15:10:09Z</time>
      </trkpt>
      <trkpt lat="47.23912" lon="6.02535">
        <ele>250.6</ele>
        <time>2019-06-06T15:10:15Z</time>
      </trkpt>
      <trkpt lat="47.23917" lon="6.02546">
        <ele>250.8</ele>
        <time>2019-06-06T15:10:22Z</time>
      </trkpt>
      <trkpt lat="47.23925" lon="6.02555">
        <ele>251</ele>
        <time>2019-06-06T15:10:33Z</time>
      </trkpt>
      <trkpt lat="47.23933" lon="6.02562">
        <ele>251.4</ele>
        <time>2019-06-06T15:10:43Z</time>
      </trkpt>
      <trkpt lat="47.23937" lon="6.02576">
        <ele>251.7</ele>
        <time>2019-06-06T15:10:51Z</time>
      </trkpt>
      <trkpt lat="47.23941" lon="6.02588">
        <ele>251.7</ele>
        <time>2019-06-06T15:10:58Z</time>
      </trkpt>
      <trkpt lat="47.23948" lon="6.02597">
        <ele>250.9</ele>
        <time>2019-06-06T15:11:12Z</time>
      </trkpt>
      <trkpt lat="47.23957" lon="6.02597">
        <ele>250.3</ele>
        <time>2019-06-06T15:11:22Z</time>
      </trkpt>
      <trkpt lat="47.23953" lon="6.0261">
        <ele>250</ele>
        <time>2019-06-06T15:11:26Z</time>
      </trkpt>
      <trkpt lat="47.23951" lon="6.02624">
        <ele>249.8</ele>
        <time>2019-06-06T15:11:30Z</time>
      </trkpt>
      <trkpt lat="47.23948" lon="6.02637">
        <ele>249.6</ele>
        <time>2019-06-06T15:11:35Z</time>
      </trkpt>
      <trkpt lat="47.23957" lon="6.02636">
        <ele>248</ele>
        <time>2019-06-06T15:12:03Z</time>
      </trkpt>
      <trkpt lat="47.23966" lon="6.02634">
        <ele>249.1</ele>
        <time>2019-06-06T15:12:12Z</time>
      </trkpt>
      <trkpt lat="47.23974" lon="6.02622">
        <ele>249.3</ele>
        <time>2019-06-06T15:12:18Z</time>
      </trkpt>
      <trkpt lat="47.23984" lon="6.0262">
        <ele>249.3</ele>
        <time>2019-06-06T15:12:23Z</time>
      </trkpt>
      <trkpt lat="47.23987" lon="6.02633">
        <ele>249.3</ele>
        <time>2019-06-06T15:12:31Z</time>
      </trkpt>
      <trkpt lat="47.2399" lon="6.02646">
        <ele>249.5</ele>
        <time>2019-06-06T15:12:37Z</time>
      </trkpt>
      <trkpt lat="47.23999" lon="6.02679">
        <ele>249</ele>
        <time>2019-06-06T15:12:50Z</time>
      </trkpt>
      <trkpt lat="47.24001" lon="6.02741">
        <ele>249</ele>
        <time>2019-06-06T15:13:10Z</time>
      </trkpt>
      <trkpt lat="47.24005" lon="6.02754">
        <ele>249.4</ele>
        <time>2019-06-06T15:13:27Z</time>
      </trkpt>
      <trkpt lat="47.23996" lon="6.02759">
        <ele>249.3</ele>
        <time>2019-06-06T15:13:34Z</time>
      </trkpt>
      <trkpt lat="47.23979" lon="6.02776">
        <ele>249</ele>
        <time>2019-06-06T15:13:52Z</time>
      </trkpt>
      <trkpt lat="47.23972" lon="6.02786">
        <ele>249</ele>
        <time>2019-06-06T15:13:58Z</time>
      </trkpt>
      <trkpt lat="47.23964" lon="6.02795">
        <ele>249.3</ele>
        <time>2019-06-06T15:14:09Z</time>
      </trkpt>
      <trkpt lat="47.23953" lon="6.02809">
        <ele>249</ele>
        <time>2019-06-06T15:14:20Z</time>
      </trkpt>
      <trkpt lat="47.23947" lon="6.02822">
        <ele>249.5</ele>
        <time>2019-06-06T15:14:27Z</time>
      </trkpt>
      <trkpt lat="47.23947" lon="6.02835">
        <ele>249.8</ele>
        <time>2019-06-06T15:14:34Z</time>
      </trkpt>
      <trkpt lat="47.23941" lon="6.02846">
        <ele>250.1</ele>
        <time>2019-06-06T15:14:43Z</time>
      </trkpt>
      <trkpt lat="47.23948" lon="6.02836">
        <ele>250.2</ele>
        <time>2019-06-06T15:15:30Z</time>
      </trkpt>
      <trkpt lat="47.23941" lon="6.02845">
        <ele>249.5</ele>
        <time>2019-06-06T15:16:25Z</time>
      </trkpt>
      <trkpt lat="47.23939" lon="6.02863">
        <ele>249.7</ele>
        <time>2019-06-06T15:17:16Z</time>
      </trkpt>
      <trkpt lat="47.23929" lon="6.0286">
        <ele>249</ele>
        <time>2019-06-06T15:17:33Z</time>
      </trkpt>
      <trkpt lat="47.2394" lon="6.02854">
        <ele>250.3</ele>
        <time>2019-06-06T15:20:00Z</time>
      </trkpt>
      <trkpt lat="47.23931" lon="6.0285">
        <ele>250.4</ele>
        <time>2019-06-06T15:20:42Z</time>
      </trkpt>
      <trkpt lat="47.23922" lon="6.02853">
        <ele>250</ele>
        <time>2019-06-06T15:20:53Z</time>
      </trkpt>
      <trkpt lat="47.23912" lon="6.02849">
        <ele>250.5</ele>
        <time>2019-06-06T15:21:03Z</time>
      </trkpt>
      <trkpt lat="47.23902" lon="6.02844">
        <ele>250.2</ele>
        <time>2019-06-06T15:21:11Z</time>
      </trkpt>
      <trkpt lat="47.23893" lon="6.02838">
        <ele>250.6</ele>
        <time>2019-06-06T15:21:19Z</time>
      </trkpt>
      <trkpt lat="47.23885" lon="6.0283">
        <ele>250.8</ele>
        <time>2019-06-06T15:21:26Z</time>
      </trkpt>
      <trkpt lat="47.23879" lon="6.02818">
        <ele>251.3</ele>
        <time>2019-06-06T15:21:35Z</time>
      </trkpt>
      <trkpt lat="47.23875" lon="6.02806">
        <ele>250.9</ele>
        <time>2019-06-06T15:21:47Z</time>
      </trkpt>
      <trkpt lat="47.23869" lon="6.02796">
        <ele>250.9</ele>
        <time>2019-06-06T15:21:56Z</time>
      </trkpt>
      <trkpt lat="47.23867" lon="6.02781">
        <ele>251.2</ele>
        <time>2019-06-06T15:22:05Z</time>
      </trkpt>
      <trkpt lat="47.23865" lon="6.02767">
        <ele>251.3</ele>
        <time>2019-06-06T15:22:16Z</time>
      </trkpt>
      <trkpt lat="47.23857" lon="6.02758">
        <ele>251.4</ele>
        <time>2019-06-06T15:22:30Z</time>
      </trkpt>
      <trkpt lat="47.23854" lon="6.02771">
        <ele>251.6</ele>
        <time>2019-06-06T15:22:39Z</time>
      </trkpt>
      <trkpt lat="47.23849" lon="6.02784">
        <ele>251.3</ele>
        <time>2019-06-06T15:22:45Z</time>
      </trkpt>
      <trkpt lat="47.23846" lon="6.02797">
        <ele>251.4</ele>
        <time>2019-06-06T15:22:54Z</time>
      </trkpt>
      <trkpt lat="47.23843" lon="6.02811">
        <ele>251.8</ele>
        <time>2019-06-06T15:23:02Z</time>
      </trkpt>
      <trkpt lat="47.2384" lon="6.02824">
        <ele>252</ele>
        <time>2019-06-06T15:23:12Z</time>
      </trkpt>
      <trkpt lat="47.23835" lon="6.02837">
        <ele>251.9</ele>
        <time>2019-06-06T15:23:20Z</time>
      </trkpt>
      <trkpt lat="47.23829" lon="6.02848">
        <ele>251.9</ele>
        <time>2019-06-06T15:23:24Z</time>
      </trkpt>
      <trkpt lat="47.23821" lon="6.02857">
        <ele>251.7</ele>
        <time>2019-06-06T15:23:30Z</time>
      </trkpt>
      <trkpt lat="47.23814" lon="6.02865">
        <ele>251.7</ele>
        <time>2019-06-06T15:23:43Z</time>
      </trkpt>
      <trkpt lat="47.23804" lon="6.02862">
        <ele>251.6</ele>
        <time>2019-06-06T15:23:48Z</time>
      </trkpt>
      <trkpt lat="47.23795" lon="6.02858">
        <ele>251.7</ele>
        <time>2019-06-06T15:23:53Z</time>
      </trkpt>
      <trkpt lat="47.23789" lon="6.02848">
        <ele>252.1</ele>
        <time>2019-06-06T15:24:00Z</time>
      </trkpt>
      <trkpt lat="47.23781" lon="6.0284">
        <ele>252.4</ele>
        <time>2019-06-06T15:24:07Z</time>
      </trkpt>
      <trkpt lat="47.23775" lon="6.0283">
        <ele>252.4</ele>
        <time>2019-06-06T15:24:13Z</time>
      </trkpt>
      <trkpt lat="47.23768" lon="6.02821">
        <ele>252.5</ele>
        <time>2019-06-06T15:24:23Z</time>
      </trkpt>
      <trkpt lat="47.23763" lon="6.02811">
        <ele>253.1</ele>
        <time>2019-06-06T15:24:37Z</time>
      </trkpt>
      <trkpt lat="47.23756" lon="6.02801">
        <ele>253.1</ele>
        <time>2019-06-06T15:24:46Z</time>
      </trkpt>
      <trkpt lat="47.23748" lon="6.02793">
        <ele>253.2</ele>
        <time>2019-06-06T15:24:56Z</time>
      </trkpt>
      <trkpt lat="47.23739" lon="6.02785">
        <ele>253.3</ele>
        <time>2019-06-06T15:25:05Z</time>
      </trkpt>
      <trkpt lat="47.23732" lon="6.02777">
        <ele>253.3</ele>
        <time>2019-06-06T15:25:16Z</time>
      </trkpt>
      <trkpt lat="47.23723" lon="6.0277">
        <ele>253.4</ele>
        <time>2019-06-06T15:25:24Z</time>
      </trkpt>
      <trkpt lat="47.23715" lon="6.02763">
        <ele>253.7</ele>
        <time>2019-06-06T15:25:42Z</time>
      </trkpt>
      <trkpt lat="47.23707" lon="6.02756">
        <ele>254</ele>
        <time>2019-06-06T15:27:00Z</time>
      </trkpt>
      <trkpt lat="47.23713" lon="6.02766">
        <ele>254.4</ele>
        <time>2019-06-06T15:27:08Z</time>
      </trkpt>
      <trkpt lat="47.23707" lon="6.02779">
        <ele>254.9</ele>
        <time>2019-06-06T15:27:17Z</time>
      </trkpt>
      <trkpt lat="47.23707" lon="6.02793">
        <ele>254.8</ele>
        <time>2019-06-06T15:27:23Z</time>
      </trkpt>
      <trkpt lat="47.23711" lon="6.02808">
        <ele>254.7</ele>
        <time>2019-06-06T15:27:30Z</time>
      </trkpt>
      <trkpt lat="47.23702" lon="6.02814">
        <ele>254.8</ele>
        <time>2019-06-06T15:27:40Z</time>
      </trkpt>
      <trkpt lat="47.23693" lon="6.0282">
        <ele>255</ele>
        <time>2019-06-06T15:27:47Z</time>
      </trkpt>
      <trkpt lat="47.23687" lon="6.02831">
        <ele>255.1</ele>
        <time>2019-06-06T15:27:56Z</time>
      </trkpt>
      <trkpt lat="47.23678" lon="6.02839">
        <ele>255.2</ele>
        <time>2019-06-06T15:28:03Z</time>
      </trkpt>
      <trkpt lat="47.2367" lon="6.02848">
        <ele>255.3</ele>
        <time>2019-06-06T15:28:11Z</time>
      </trkpt>
      <trkpt lat="47.2366" lon="6.0285">
        <ele>254.8</ele>
        <time>2019-06-06T15:28:20Z</time>
      </trkpt>
      <trkpt lat="47.23651" lon="6.02852">
        <ele>254.9</ele>
        <time>2019-06-06T15:28:39Z</time>
      </trkpt>
      <trkpt lat="47.23648" lon="6.0284">
        <ele>255.4</ele>
        <time>2019-06-06T15:28:52Z</time>
      </trkpt>
      <trkpt lat="47.23638" lon="6.02836">
        <ele>255.1</ele>
        <time>2019-06-06T15:29:05Z</time>
      </trkpt>
      <trkpt lat="47.2363" lon="6.0283">
        <ele>255.4</ele>
        <time>2019-06-06T15:29:13Z</time>
      </trkpt>
      <trkpt lat="47.23625" lon="6.02819">
        <ele>255.6</ele>
        <time>2019-06-06T15:29:21Z</time>
      </trkpt>
      <trkpt lat="47.23616" lon="6.02817">
        <ele>255.6</ele>
        <time>2019-06-06T15:29:31Z</time>
      </trkpt>
      <trkpt lat="47.23617" lon="6.02802">
        <ele>255.4</ele>
        <time>2019-06-06T15:29:40Z</time>
      </trkpt>
      <trkpt lat="47.23615" lon="6.02788">
        <ele>255</ele>
        <time>2019-06-06T15:29:46Z</time>
      </trkpt>
      <trkpt lat="47.23612" lon="6.02773">
        <ele>255.6</ele>
        <time>2019-06-06T15:29:54Z</time>
      </trkpt>
      <trkpt lat="47.23604" lon="6.02763">
        <ele>255.5</ele>
        <time>2019-06-06T15:30:06Z</time>
      </trkpt>
      <trkpt lat="47.23595" lon="6.02761">
        <ele>255.7</ele>
        <time>2019-06-06T15:30:12Z</time>
      </trkpt>
      <trkpt lat="47.2359" lon="6.0275">
        <ele>255.6</ele>
        <time>2019-06-06T15:30:21Z</time>
      </trkpt>
      <trkpt lat="47.23585" lon="6.02738">
        <ele>255.5</ele>
        <time>2019-06-06T15:30:25Z</time>
      </trkpt>
      <trkpt lat="47.2358" lon="6.02726">
        <ele>255.5</ele>
        <time>2019-06-06T15:30:42Z</time>
      </trkpt>
      <trkpt lat="47.23577" lon="6.02739">
        <ele>255.2</ele>
        <time>2019-06-06T15:31:12Z</time>
      </trkpt>
      <trkpt lat="47.23568" lon="6.02743">
        <ele>255</ele>
        <time>2019-06-06T15:31:24Z</time>
      </trkpt>
      <trkpt lat="47.23565" lon="6.02757">
        <ele>255.1</ele>
        <time>2019-06-06T15:31:35Z</time>
      </trkpt>
      <trkpt lat="47.2356" lon="6.02768">
        <ele>255.1</ele>
        <time>2019-06-06T15:31:45Z</time>
      </trkpt>
      <trkpt lat="47.2356" lon="6.02781">
        <ele>255.1</ele>
        <time>2019-06-06T15:31:54Z</time>
      </trkpt>
      <trkpt lat="47.23555" lon="6.02794">
        <ele>255.2</ele>
        <time>2019-06-06T15:32:05Z</time>
      </trkpt>
      <trkpt lat="47.2355" lon="6.02806">
        <ele>255.4</ele>
        <time>2019-06-06T15:32:15Z</time>
      </trkpt>
      <trkpt lat="47.23544" lon="6.02817">
        <ele>255.2</ele>
        <time>2019-06-06T15:32:25Z</time>
      </trkpt>
      <trkpt lat="47.23536" lon="6.02825">
        <ele>255.1</ele>
        <time>2019-06-06T15:32:32Z</time>
      </trkpt>
      <trkpt lat="47.23531" lon="6.02838">
        <ele>255.3</ele>
        <time>2019-06-06T15:32:42Z</time>
      </trkpt>
      <trkpt lat="47.23525" lon="6.0285">
        <ele>255.2</ele>
        <time>2019-06-06T15:32:52Z</time>
      </trkpt>
      <trkpt lat="47.23518" lon="6.02858">
        <ele>255.3</ele>
        <time>2019-06-06T15:33:00Z</time>
      </trkpt>
      <trkpt lat="47.2351" lon="6.02863">
        <ele>255.4</ele>
        <time>2019-06-06T15:33:09Z</time>
      </trkpt>
      <trkpt lat="47.23507" lon="6.02877">
        <ele>255.2</ele>
        <time>2019-06-06T15:33:19Z</time>
      </trkpt>
      <trkpt lat="47.23504" lon="6.02891">
        <ele>255.6</ele>
        <time>2019-06-06T15:33:33Z</time>
      </trkpt>
      <trkpt lat="47.235" lon="6.02903">
        <ele>256.1</ele>
        <time>2019-06-06T15:33:42Z</time>
      </trkpt>
      <trkpt lat="47.235" lon="6.02917">
        <ele>256.3</ele>
        <time>2019-06-06T15:33:51Z</time>
      </trkpt>
      <trkpt lat="47.23499" lon="6.02931">
        <ele>257.3</ele>
        <time>2019-06-06T15:34:02Z</time>
      </trkpt>
      <trkpt lat="47.2349" lon="6.02938">
        <ele>257.5</ele>
        <time>2019-06-06T15:34:16Z</time>
      </trkpt>
      <trkpt lat="47.23481" lon="6.02937">
        <ele>257.1</ele>
        <time>2019-06-06T15:37:28Z</time>
      </trkpt>
      <trkpt lat="47.23474" lon="6.02945">
        <ele>257.7</ele>
        <time>2019-06-06T15:37:59Z</time>
      </trkpt>
      <trkpt lat="47.23465" lon="6.02946">
        <ele>258.1</ele>
        <time>2019-06-06T15:38:08Z</time>
      </trkpt>
      <trkpt lat="47.23465" lon="6.02959">
        <ele>259.2</ele>
        <time>2019-06-06T15:38:38Z</time>
      </trkpt>
      <trkpt lat="47.23462" lon="6.02973">
        <ele>260</ele>
        <time>2019-06-06T15:38:49Z</time>
      </trkpt>
      <trkpt lat="47.23461" lon="6.02987">
        <ele>260</ele>
        <time>2019-06-06T15:38:56Z</time>
      </trkpt>
      <trkpt lat="47.23467" lon="6.02997">
        <ele>259.7</ele>
        <time>2019-06-06T15:39:28Z</time>
      </trkpt>
      <trkpt lat="47.2346" lon="6.03006">
        <ele>260</ele>
        <time>2019-06-06T15:40:55Z</time>
      </trkpt>
      <trkpt lat="47.23468" lon="6.03">
        <ele>260</ele>
        <time>2019-06-06T15:41:20Z</time>
      </trkpt>
      <trkpt lat="47.23463" lon="6.0299">
        <ele>260.5</ele>
        <time>2019-06-06T15:42:01Z</time>
      </trkpt>
      <trkpt lat="47.23453" lon="6.02991">
        <ele>261.8</ele>
        <time>2019-06-06T15:42:39Z</time>
      </trkpt>
      <trkpt lat="47.23444" lon="6.02992">
        <ele>262.3</ele>
        <time>2019-06-06T15:42:47Z</time>
      </trkpt>
      <trkpt lat="47.23436" lon="6.02996">
        <ele>263.2</ele>
        <time>2019-06-06T15:43:00Z</time>
      </trkpt>
      <trkpt lat="47.23435" lon="6.03009">
        <ele>264.2</ele>
        <time>2019-06-06T15:43:18Z</time>
      </trkpt>
      <trkpt lat="47.23427" lon="6.03019">
        <ele>265.4</ele>
        <time>2019-06-06T15:43:30Z</time>
      </trkpt>
      <trkpt lat="47.23415" lon="6.03018">
        <ele>266</ele>
        <time>2019-06-06T15:43:43Z</time>
      </trkpt>
      <trkpt lat="47.23418" lon="6.03035">
        <ele>267.2</ele>
        <time>2019-06-06T15:44:22Z</time>
      </trkpt>
      <trkpt lat="47.23411" lon="6.03049">
        <ele>267</ele>
        <time>2019-06-06T15:44:36Z</time>
      </trkpt>
      <trkpt lat="47.23393" lon="6.03053">
        <ele>268</ele>
        <time>2019-06-06T15:44:52Z</time>
      </trkpt>
      <trkpt lat="47.23375" lon="6.03067">
        <ele>271</ele>
        <time>2019-06-06T15:45:40Z</time>
      </trkpt>
      <trkpt lat="47.2337" lon="6.03111">
        <ele>280.4</ele>
        <time>2019-06-06T16:02:16Z</time>
      </trkpt>
      <trkpt lat="47.23374" lon="6.03123">
        <ele>281</ele>
        <time>2019-06-06T16:02:24Z</time>
      </trkpt>
      <trkpt lat="47.23372" lon="6.03136">
        <ele>282.2</ele>
        <time>2019-06-06T16:02:38Z</time>
      </trkpt>
      <trkpt lat="47.23377" lon="6.03149">
        <ele>283.1</ele>
        <time>2019-06-06T16:02:46Z</time>
      </trkpt>
      <trkpt lat="47.23377" lon="6.03162">
        <ele>284</ele>
        <time>2019-06-06T16:02:53Z</time>
      </trkpt>
      <trkpt lat="47.23372" lon="6.03175">
        <ele>285.9</ele>
        <time>2019-06-06T16:03:06Z</time>
      </trkpt>
      <trkpt lat="47.23366" lon="6.03187">
        <ele>286.9</ele>
        <time>2019-06-06T16:03:14Z</time>
      </trkpt>
      <trkpt lat="47.23361" lon="6.03198">
        <ele>287.7</ele>
        <time>2019-06-06T16:03:23Z</time>
      </trkpt>
      <trkpt lat="47.23359" lon="6.03211">
        <ele>289.2</ele>
        <time>2019-06-06T16:03:33Z</time>
      </trkpt>
      <trkpt lat="47.23356" lon="6.03224">
        <ele>290.3</ele>
        <time>2019-06-06T16:03:43Z</time>
      </trkpt>
      <trkpt lat="47.23354" lon="6.03238">
        <ele>291.7</ele>
        <time>2019-06-06T16:03:53Z</time>
      </trkpt>
      <trkpt lat="47.23351" lon="6.03252">
        <ele>293.3</ele>
        <time>2019-06-06T16:04:05Z</time>
      </trkpt>
      <trkpt lat="47.23342" lon="6.03256">
        <ele>295</ele>
        <time>2019-06-06T16:04:15Z</time>
      </trkpt>
      <trkpt lat="47.23338" lon="6.03243">
        <ele>298.8</ele>
        <time>2019-06-06T16:04:35Z</time>
      </trkpt>
      <trkpt lat="47.23331" lon="6.03235">
        <ele>300.5</ele>
        <time>2019-06-06T16:04:44Z</time>
      </trkpt>
      <trkpt lat="47.23324" lon="6.03226">
        <ele>302.1</ele>
        <time>2019-06-06T16:04:56Z</time>
      </trkpt>
      <trkpt lat="47.23319" lon="6.03213">
        <ele>304</ele>
        <time>2019-06-06T16:05:08Z</time>
      </trkpt>
      <trkpt lat="47.23311" lon="6.03204">
        <ele>305.6</ele>
        <time>2019-06-06T16:05:21Z</time>
      </trkpt>
      <trkpt lat="47.23303" lon="6.03198">
        <ele>307.1</ele>
        <time>2019-06-06T16:05:32Z</time>
      </trkpt>
      <trkpt lat="47.23298" lon="6.03186">
        <ele>308.9</ele>
        <time>2019-06-06T16:06:01Z</time>
      </trkpt>
      <trkpt lat="47.23297" lon="6.03192">
        <ele>309.7</ele>
        <time>2019-06-06T16:06:24Z</time>
      </trkpt>
    </trkseg>
  </trk>
</gpx>